createdAt,value
2022-09-10T00:02:07.526Z,7.80
2022-09-10T00:04:34.701Z,7.80
2022-09-10T00:07:01.600Z,8.37
2022-09-10T00:09:28.608Z,8.70
2022-09-10T00:11:55.304Z,8.27
2022-09-10T00:14:23.807Z,8.53
2022-09-10T00:16:51.382Z,8.87
2022-09-10T00:19:19.077Z,8.87
2022-09-10T00:21:45.930Z,8.80
2022-09-10T00:24:13.815Z,8.13
2022-09-10T00:26:40.632Z,8.30
2022-09-10T00:29:10.636Z,8.40
2022-09-10T00:31:38.103Z,8.77
2022-09-10T00:34:05.938Z,8.00
2022-09-10T00:36:36.569Z,8.47
2022-09-10T00:39:10.349Z,8.13
2022-09-10T00:41:39.269Z,8.17
2022-09-10T00:44:41.344Z,8.07
2022-09-10T00:47:14.543Z,8.77
2022-09-10T00:49:47.129Z,8.73
2022-09-10T00:52:14.693Z,8.50
2022-09-10T00:54:43.612Z,8.80
2022-09-10T00:57:16.080Z,9.30
2022-09-10T00:59:47.886Z,9.27
2022-09-10T01:02:15.039Z,8.55
2022-09-10T01:04:43.084Z,8.80
2022-09-10T01:07:11.242Z,9.13
2022-09-10T01:09:40.336Z,8.60
2022-09-10T01:12:08.064Z,8.83
2022-09-10T01:14:51.662Z,9.00
2022-09-10T01:17:40.153Z,8.52
2022-09-10T01:20:19.450Z,10.02
2022-09-10T01:23:06.320Z,10.60
2022-09-10T01:25:45.622Z,9.67
2022-09-10T01:28:55.110Z,10.40
2022-09-10T01:31:40.197Z,10.77
2022-09-10T01:34:27.810Z,12.50
2022-09-10T01:37:01.275Z,11.70
2022-09-10T01:39:28.598Z,12.10
2022-09-10T01:41:57.310Z,11.50
2022-09-10T01:44:46.297Z,10.57
2022-09-10T01:47:35.224Z,11.02
2022-09-10T01:50:24.212Z,10.38
2022-09-10T01:53:06.098Z,10.40
2022-09-10T01:56:01.956Z,10.38
2022-09-10T01:58:35.661Z,11.02
2022-09-10T02:01:24.103Z,9.98
2022-09-10T02:03:56.948Z,10.73
2022-09-10T02:06:29.563Z,10.93
2022-09-10T02:09:00.595Z,10.20
2022-09-10T02:11:29.021Z,9.82
2022-09-10T02:13:59.181Z,9.75
2022-09-10T02:16:57.816Z,10.35
2022-09-10T02:19:26.748Z,10.75
2022-09-10T02:21:56.232Z,10.50
2022-09-10T02:24:24.413Z,10.85
2022-09-10T02:26:51.307Z,10.85
2022-09-10T02:29:19.293Z,10.63
2022-09-10T02:31:47.412Z,10.77
2022-09-10T02:34:15.992Z,9.90
2022-09-10T02:36:46.373Z,10.93
2022-09-10T02:39:14.164Z,10.52
2022-09-10T02:41:41.517Z,11.65
2022-09-10T02:44:08.838Z,12.02
2022-09-10T02:46:37.098Z,10.93
2022-09-10T02:49:03.968Z,10.35
2022-09-10T02:51:37.000Z,11.10
2022-09-10T02:54:04.440Z,11.40
2022-09-10T02:56:31.392Z,11.45
2022-09-10T02:58:58.178Z,11.00
2022-09-10T03:01:26.706Z,10.30
2022-09-10T03:03:59.561Z,12.20
2022-09-10T03:06:27.372Z,11.65
2022-09-10T03:08:57.667Z,11.75
2022-09-10T03:11:27.417Z,11.55
2022-09-10T03:13:55.493Z,12.25
2022-09-10T03:16:24.231Z,12.45
2022-09-10T03:18:52.215Z,12.98
2022-09-10T03:21:25.202Z,12.13
2022-09-10T03:23:53.491Z,12.02
2022-09-10T03:26:25.515Z,13.15
2022-09-10T03:28:53.378Z,12.18
2022-09-10T03:31:22.549Z,13.02
2022-09-10T03:33:51.126Z,13.47
2022-09-10T03:36:18.347Z,14.35
2022-09-10T03:38:47.489Z,13.90
2022-09-10T03:41:14.524Z,14.50
2022-09-10T03:43:41.413Z,13.23
2022-09-10T03:46:12.077Z,14.32
2022-09-10T03:48:43.607Z,15.93
2022-09-10T03:51:10.913Z,15.43
2022-09-10T03:53:38.882Z,15.25
2022-09-10T03:56:07.088Z,15.55
2022-09-10T03:58:35.894Z,15.98
2022-09-10T04:01:04.442Z,15.82
2022-09-10T04:03:34.899Z,16.17
2022-09-10T04:06:01.662Z,15.57
2022-09-10T04:08:28.571Z,16.42
2022-09-10T04:10:57.038Z,16.07
2022-09-10T04:13:24.898Z,16.45
2022-09-10T04:15:53.271Z,16.27
2022-09-10T04:18:21.161Z,15.68
2022-09-10T04:20:50.769Z,16.00
2022-09-10T04:23:17.487Z,16.20
2022-09-10T04:25:47.587Z,17.05
2022-09-10T04:28:14.345Z,16.80
2022-09-10T04:30:45.013Z,16.42
2022-09-10T04:33:12.060Z,16.77
2022-09-10T04:35:40.883Z,16.27
2022-09-10T04:38:08.162Z,16.50
2022-09-10T04:40:38.427Z,16.93
2022-09-10T04:43:05.752Z,17.13
2022-09-10T04:45:36.594Z,16.25
2022-09-10T04:48:07.054Z,16.88
2022-09-10T04:50:35.658Z,16.45
2022-09-10T04:53:17.003Z,16.25
2022-09-10T04:55:46.722Z,17.15
2022-09-10T04:58:13.686Z,16.52
2022-09-10T05:00:42.358Z,17.58
2022-09-10T05:03:09.257Z,16.67
2022-09-10T05:05:38.191Z,16.73
2022-09-10T05:08:07.961Z,17.10
2022-09-10T05:10:36.634Z,16.63
2022-09-10T05:13:05.672Z,17.00
2022-09-10T05:15:33.337Z,16.92
2022-09-10T05:18:00.584Z,16.80
2022-09-10T05:20:28.313Z,16.35
2022-09-10T05:22:56.304Z,16.58
2022-09-10T05:25:24.336Z,17.17
2022-09-10T05:27:51.417Z,15.60
2022-09-10T05:30:21.068Z,16.67
2022-09-10T05:32:48.003Z,17.60
2022-09-10T05:35:15.960Z,17.95
2022-09-10T05:37:45.875Z,16.08
2022-09-10T05:40:14.925Z,17.48
2022-09-10T05:42:42.408Z,17.38
2022-09-10T05:45:10.285Z,17.77
2022-09-10T05:47:37.971Z,16.75
2022-09-10T05:50:06.315Z,17.88
2022-09-10T05:52:34.181Z,18.70
2022-09-10T05:55:04.634Z,17.58
2022-09-10T05:57:31.528Z,18.27
2022-09-10T05:59:59.981Z,17.40
2022-09-10T06:02:26.879Z,16.95
2022-09-10T06:04:55.870Z,17.38
2022-09-10T06:07:23.382Z,17.20
2022-09-10T06:09:51.701Z,16.65
2022-09-10T06:12:30.891Z,17.85
2022-09-10T06:14:58.909Z,17.63
2022-09-10T06:17:25.775Z,17.67
2022-09-10T06:19:52.733Z,16.73
2022-09-10T06:22:19.652Z,16.05
2022-09-10T06:24:50.774Z,15.68
2022-09-10T06:27:18.777Z,16.85
2022-09-10T06:29:47.301Z,16.65
2022-09-10T06:32:14.277Z,17.75
2022-09-10T06:34:43.110Z,16.40
2022-09-10T06:37:10.888Z,17.17
2022-09-10T06:39:38.947Z,17.45
2022-09-10T06:42:06.691Z,17.27
2022-09-10T06:44:52.090Z,17.02
2022-09-10T06:48:19.099Z,16.77
2022-09-10T06:50:26.536Z,17.27
2022-09-10T06:52:57.794Z,15.50
2022-09-10T06:55:25.276Z,15.77
2022-09-10T06:57:51.986Z,16.40
2022-09-10T07:00:18.853Z,15.27
2022-09-10T07:02:52.217Z,14.57
2022-09-10T07:05:19.176Z,15.63
2022-09-10T07:07:46.819Z,16.80
2022-09-10T07:10:14.784Z,14.65
2022-09-10T07:12:41.990Z,14.75
2022-09-10T07:15:09.493Z,16.52
2022-09-10T07:17:37.594Z,14.43
2022-09-10T07:20:06.212Z,14.85
2022-09-10T07:22:44.219Z,14.48
2022-09-10T07:25:13.204Z,14.95
2022-09-10T07:28:15.934Z,15.05
2022-09-10T07:30:47.486Z,14.23
2022-09-10T07:33:15.607Z,14.70
2022-09-10T07:35:44.137Z,15.25
2022-09-10T07:38:14.174Z,15.35
2022-09-10T07:40:43.707Z,13.73
2022-09-10T07:43:10.989Z,13.07
2022-09-10T07:45:40.181Z,13.07
2022-09-10T07:48:07.064Z,13.88
2022-09-10T07:50:38.327Z,14.30
2022-09-10T07:53:05.523Z,13.25
2022-09-10T07:55:32.983Z,13.40
2022-09-10T07:58:00.468Z,12.93
2022-09-10T08:00:29.593Z,13.25
2022-09-10T08:03:00.451Z,12.55
2022-09-10T08:05:28.820Z,12.80
2022-09-10T08:07:55.707Z,12.95
2022-09-10T08:10:25.590Z,13.13
2022-09-10T08:12:52.716Z,12.95
2022-09-10T08:15:20.393Z,12.50
2022-09-10T08:17:47.825Z,12.90
2022-09-10T08:20:15.873Z,13.25
2022-09-10T08:22:45.069Z,13.55
2022-09-10T08:25:12.169Z,12.63
2022-09-10T08:27:42.776Z,13.68
2022-09-10T08:30:10.620Z,13.45
2022-09-10T08:32:38.298Z,12.68
2022-09-10T08:35:06.954Z,13.27
2022-09-10T08:37:33.841Z,12.57
2022-09-10T08:40:03.215Z,12.95
2022-09-10T08:42:46.626Z,12.73
2022-09-10T08:45:28.218Z,11.68
2022-09-10T08:48:15.727Z,11.43
2022-09-10T08:51:00.472Z,11.60
2022-09-10T08:54:01.333Z,12.10
2022-09-10T08:56:28.817Z,10.90
2022-09-10T08:59:03.099Z,11.90
2022-09-10T09:01:37.332Z,11.32
2022-09-10T09:04:13.256Z,11.68
2022-09-10T09:06:53.728Z,11.90
2022-09-10T09:09:22.040Z,11.90
2022-09-10T09:11:54.781Z,12.90
2022-09-10T09:14:39.569Z,11.35
2022-09-10T09:17:16.792Z,11.23
2022-09-10T09:20:10.260Z,10.95
2022-09-10T09:22:40.647Z,11.02
2022-09-10T09:25:24.828Z,10.95
2022-09-10T09:27:56.280Z,10.63
2022-09-10T09:30:35.580Z,11.13
2022-09-10T09:33:13.626Z,11.02
2022-09-10T09:35:48.892Z,10.15
2022-09-10T09:38:30.415Z,11.55
2022-09-10T09:41:06.651Z,11.00
2022-09-10T09:44:03.346Z,11.27
2022-09-10T09:46:34.442Z,10.90
2022-09-10T09:49:04.858Z,11.13
2022-09-10T09:51:35.875Z,10.95
2022-09-10T09:56:59.763Z,11.48
2022-09-10T09:59:34.960Z,10.82
2022-09-10T10:02:11.594Z,10.43
2022-09-10T10:05:01.125Z,10.15
2022-09-10T10:07:33.170Z,10.48
2022-09-10T10:10:01.240Z,10.63
2022-09-10T10:12:33.287Z,9.45
2022-09-10T10:15:01.326Z,9.52
2022-09-10T10:17:33.049Z,8.80
2022-09-10T10:20:09.214Z,8.98
2022-09-10T10:22:38.404Z,8.45
2022-09-10T10:25:30.892Z,7.68
2022-09-10T10:27:57.619Z,8.75
2022-09-10T10:30:25.194Z,8.73
2022-09-10T10:32:57.990Z,9.52
2022-09-10T10:35:44.206Z,8.57
2022-09-10T10:38:35.379Z,8.52
2022-09-10T10:41:26.917Z,9.55
2022-09-10T10:44:14.609Z,8.23
2022-09-10T10:46:56.068Z,7.57
2022-09-10T10:49:38.533Z,8.73
2022-09-10T10:52:40.047Z,7.05
2022-09-10T10:55:38.911Z,8.27
2022-09-10T10:58:17.918Z,8.05
2022-09-10T11:00:51.336Z,8.32
2022-09-10T11:03:30.169Z,7.78
2022-09-10T11:06:20.381Z,7.47
2022-09-10T11:09:04.904Z,7.38
2022-09-10T11:12:03.715Z,7.25
2022-09-10T11:14:48.671Z,7.53
2022-09-10T11:17:22.522Z,7.60
2022-09-10T11:20:28.063Z,8.30
2022-09-10T11:23:10.592Z,8.63
2022-09-10T11:25:48.161Z,9.23
2022-09-10T11:28:21.079Z,9.15
2022-09-10T11:30:58.479Z,8.98
2022-09-10T11:33:36.010Z,9.00
2022-09-10T11:36:17.899Z,9.63
2022-09-10T11:38:59.240Z,10.05
2022-09-10T11:41:30.188Z,10.32
2022-09-10T11:44:15.841Z,10.30
2022-09-10T11:47:06.577Z,10.40
2022-09-10T11:49:39.328Z,9.05
2022-09-10T11:52:06.128Z,8.27
2022-09-10T11:54:35.493Z,8.38
2022-09-10T11:57:13.145Z,8.43
2022-09-10T11:59:51.849Z,8.55
2022-09-10T12:02:52.213Z,9.18
2022-09-10T12:05:43.730Z,8.35
2022-09-10T12:08:13.783Z,7.72
2022-09-10T12:10:46.059Z,8.57
2022-09-10T12:13:15.242Z,8.95
2022-09-10T12:15:52.903Z,9.50
2022-09-10T12:18:42.941Z,7.43
2022-09-10T12:21:23.406Z,7.05
2022-09-10T12:23:50.166Z,5.72
2022-09-10T12:26:20.671Z,5.28
2022-09-10T12:28:53.165Z,5.90
2022-09-10T12:31:21.616Z,5.10
2022-09-10T12:33:48.443Z,5.05
2022-09-10T12:36:27.466Z,5.10
2022-09-10T12:39:28.820Z,4.53
2022-09-10T12:41:56.941Z,4.95
2022-09-10T12:44:44.678Z,4.95
2022-09-10T12:47:17.479Z,5.68
2022-09-10T12:49:51.285Z,6.07
2022-09-10T12:52:20.978Z,5.47
2022-09-10T12:54:50.832Z,5.82
2022-09-10T12:57:23.969Z,5.22
2022-09-10T13:00:11.534Z,5.13
2022-09-10T13:03:01.053Z,5.07
2022-09-10T13:05:32.124Z,4.03
2022-09-10T13:08:17.333Z,3.50
2022-09-10T13:11:24.545Z,4.32
2022-09-10T13:14:05.416Z,4.50
2022-09-10T13:16:32.577Z,3.90
2022-09-10T13:19:15.188Z,4.10
2022-09-10T13:21:44.843Z,3.97
2022-09-10T13:24:33.879Z,3.67
2022-09-10T13:27:12.756Z,3.28
2022-09-10T13:29:47.566Z,3.15
2022-09-10T13:32:27.353Z,3.78
2022-09-10T13:35:05.572Z,3.67
2022-09-10T13:37:56.860Z,3.38
2022-09-10T13:40:32.512Z,6.15
2022-09-10T13:43:11.843Z,5.90
2022-09-10T13:45:53.645Z,5.82
2022-09-10T13:48:46.241Z,6.40
2022-09-10T13:51:28.062Z,6.22
2022-09-10T13:53:57.376Z,6.07
2022-09-10T13:56:28.376Z,5.88
2022-09-10T13:59:00.858Z,6.18
2022-09-10T14:01:52.299Z,6.85
2022-09-10T14:04:23.916Z,6.47
2022-09-10T14:06:50.885Z,6.35
2022-09-10T14:09:17.785Z,8.38
2022-09-10T14:11:44.700Z,8.40
2022-09-10T14:14:18.550Z,8.40
2022-09-10T14:16:54.263Z,9.32
2022-09-10T14:19:25.687Z,9.05
2022-09-10T14:21:53.645Z,9.50
2022-09-10T14:24:31.405Z,8.55
2022-09-10T14:27:05.447Z,7.55
2022-09-10T14:29:32.568Z,7.60
2022-09-10T14:32:24.653Z,7.28
2022-09-10T14:34:51.440Z,7.80
2022-09-10T14:37:44.646Z,8.10
2022-09-10T14:40:18.756Z,7.38
2022-09-10T14:42:47.562Z,6.78
2022-09-10T14:45:50.111Z,8.10
2022-09-10T14:48:39.613Z,7.20
2022-09-10T14:51:19.501Z,7.00
2022-09-10T14:53:51.536Z,7.43
2022-09-10T14:56:30.855Z,7.32
2022-09-10T14:59:00.365Z,6.85
2022-09-10T15:01:27.921Z,6.15
2022-09-10T15:03:54.790Z,5.60
2022-09-10T15:06:25.664Z,5.07
2022-09-10T15:08:56.201Z,6.95
2022-09-10T15:11:26.193Z,7.20
2022-09-10T15:13:56.032Z,7.18
2022-09-10T15:16:25.734Z,6.97
2022-09-10T15:18:52.536Z,6.45
2022-09-10T15:21:19.847Z,6.72
2022-09-10T15:23:48.263Z,6.25
2022-09-10T15:26:15.690Z,6.63
2022-09-10T15:28:42.494Z,6.10
2022-09-10T15:31:10.481Z,6.05
2022-09-10T15:33:37.352Z,6.78
2022-09-10T15:36:04.315Z,6.35
2022-09-10T15:38:31.479Z,7.50
2022-09-10T15:41:12.549Z,6.80
2022-09-10T15:43:43.037Z,7.93
2022-09-10T15:46:15.935Z,7.15
2022-09-10T15:48:45.109Z,7.05
2022-09-10T15:51:17.733Z,6.82
2022-09-10T15:53:46.029Z,6.57
2022-09-10T15:56:14.517Z,6.50
2022-09-10T15:58:43.176Z,6.22
2022-09-10T16:01:12.275Z,6.70
2022-09-10T16:03:45.878Z,6.80
2022-09-10T16:06:12.911Z,6.45
2022-09-10T16:08:39.883Z,6.40
2022-09-10T16:11:13.767Z,6.68
2022-09-10T16:13:40.601Z,7.20
2022-09-10T16:16:10.571Z,7.60
2022-09-10T16:18:37.910Z,7.00
2022-09-10T16:21:11.428Z,7.03
2022-09-10T16:23:40.458Z,7.15
2022-09-10T16:26:09.368Z,7.57
2022-09-10T16:28:36.190Z,7.20
2022-09-10T16:31:14.226Z,6.68
2022-09-10T16:33:41.433Z,8.45
2022-09-10T16:36:08.961Z,7.28
2022-09-10T16:38:35.719Z,8.02
2022-09-10T16:41:03.808Z,8.00
2022-09-10T16:43:32.251Z,7.80
2022-09-10T16:45:59.078Z,8.05
2022-09-10T16:48:26.104Z,7.63
2022-09-10T16:50:52.844Z,7.93
2022-09-10T16:53:20.408Z,9.15
2022-09-10T16:55:47.161Z,9.05
2022-09-10T16:58:14.665Z,9.50
2022-09-10T17:00:42.846Z,9.57
2022-09-10T17:03:09.900Z,10.05
2022-09-10T17:05:36.711Z,9.18
2022-09-10T17:08:03.443Z,8.82
2022-09-10T17:10:30.207Z,9.95
2022-09-10T17:12:57.728Z,9.05
2022-09-10T17:15:24.577Z,9.18
2022-09-10T17:17:51.303Z,9.68
2022-09-10T17:20:19.426Z,11.02
2022-09-10T17:22:46.807Z,11.10
2022-09-10T17:25:13.715Z,10.23
2022-09-10T17:27:40.645Z,11.63
2022-09-10T17:30:07.954Z,10.85
2022-09-10T17:32:35.058Z,11.77
2022-09-10T17:35:01.830Z,11.70
2022-09-10T17:37:28.710Z,12.13
2022-09-10T17:39:55.477Z,10.88
2022-09-10T17:42:22.275Z,10.65
2022-09-10T17:44:49.464Z,11.70
2022-09-10T17:47:16.287Z,11.15
2022-09-10T17:49:43.510Z,11.00
2022-09-10T17:52:10.290Z,11.52
2022-09-10T17:54:37.124Z,11.70
2022-09-10T17:57:03.947Z,10.90
2022-09-10T17:59:31.232Z,11.27
2022-09-10T18:01:58.155Z,12.18
2022-09-10T18:04:26.405Z,12.15
2022-09-10T18:06:53.244Z,11.82
2022-09-10T18:09:20.442Z,12.35
2022-09-10T18:11:47.500Z,12.57
2022-09-10T18:14:18.764Z,12.77
2022-09-10T18:16:49.446Z,14.32
2022-09-10T18:19:17.754Z,13.57
2022-09-10T18:21:47.070Z,14.15
2022-09-10T18:24:17.146Z,14.77
2022-09-10T18:26:46.507Z,16.00
2022-09-10T18:29:19.080Z,16.38
2022-09-10T18:31:52.235Z,15.55
2022-09-10T18:34:23.554Z,15.48
2022-09-10T18:36:58.272Z,15.77
2022-09-10T18:39:27.363Z,16.13
2022-09-10T18:41:54.924Z,15.80
2022-09-10T18:44:24.922Z,16.93
2022-09-10T18:46:53.244Z,17.05
2022-09-10T18:49:22.022Z,17.30
2022-09-10T18:51:49.890Z,16.67
2022-09-10T18:54:17.458Z,17.10
2022-09-10T18:56:45.480Z,15.95
2022-09-10T18:59:21.227Z,15.63
2022-09-10T19:01:49.522Z,16.25
2022-09-10T19:04:20.080Z,15.70
2022-09-10T19:06:48.172Z,15.55
2022-09-10T19:09:18.917Z,15.35
2022-09-10T19:11:47.754Z,16.15
2022-09-10T19:14:16.852Z,16.00
2022-09-10T19:16:46.262Z,15.02
2022-09-10T19:19:19.028Z,15.63
2022-09-10T19:21:47.614Z,15.13
2022-09-10T19:24:16.672Z,15.77
2022-09-10T19:26:44.225Z,14.67
2022-09-10T19:29:13.007Z,14.80
2022-09-10T19:31:41.046Z,13.93
2022-09-10T19:34:09.326Z,14.67
2022-09-10T19:36:36.653Z,15.02
2022-09-10T19:39:08.901Z,15.27
2022-09-10T19:41:39.049Z,14.27
2022-09-10T19:44:08.046Z,13.32
2022-09-10T19:46:36.639Z,15.57
2022-09-10T19:49:05.244Z,14.50
2022-09-10T19:51:35.259Z,14.27
2022-09-10T19:54:02.847Z,13.52
2022-09-10T19:56:33.773Z,13.68
2022-09-10T19:59:02.549Z,14.32
2022-09-10T20:01:35.590Z,13.57
2022-09-10T20:04:06.218Z,12.90
2022-09-10T20:06:34.804Z,12.38
2022-09-10T20:09:03.613Z,13.48
2022-09-10T20:11:33.121Z,12.90
2022-09-10T20:14:07.962Z,12.65
2022-09-10T20:16:43.452Z,11.85
2022-09-10T20:19:12.426Z,12.68
2022-09-10T20:21:39.860Z,12.38
2022-09-10T20:24:07.845Z,12.77
2022-09-10T20:26:41.324Z,12.75
2022-09-10T20:29:12.367Z,12.80
2022-09-10T20:31:41.211Z,12.87
2022-09-10T20:34:12.079Z,11.45
2022-09-10T20:36:40.663Z,12.25
2022-09-10T20:39:07.764Z,12.13
2022-09-10T20:41:34.548Z,13.03
2022-09-10T20:44:01.823Z,13.23
2022-09-10T20:46:30.494Z,12.20
2022-09-10T20:49:03.148Z,12.52
2022-09-10T20:51:38.789Z,12.83
2022-09-10T20:54:08.001Z,13.30
2022-09-10T20:56:34.851Z,13.73
2022-09-10T20:59:02.025Z,13.10
2022-09-10T21:01:33.224Z,12.43
2022-09-10T21:04:01.396Z,13.48
2022-09-10T21:06:31.328Z,14.10
2022-09-10T21:08:59.381Z,11.97
2022-09-10T21:11:29.432Z,13.20
2022-09-10T21:13:58.394Z,13.43
2022-09-10T21:16:33.032Z,12.73
2022-09-10T21:19:02.866Z,13.52
2022-09-10T21:21:32.764Z,13.25
2022-09-10T21:24:06.055Z,13.90
2022-09-10T21:26:35.419Z,13.20
2022-09-10T21:29:04.278Z,15.10
2022-09-10T21:31:31.460Z,14.05
2022-09-10T21:34:03.096Z,14.20
2022-09-10T21:36:31.566Z,13.60
2022-09-10T21:39:00.838Z,13.40
2022-09-10T21:41:35.478Z,13.10
2022-09-10T21:44:06.036Z,12.83
2022-09-10T21:46:34.140Z,13.37
2022-09-10T21:49:01.103Z,12.90
2022-09-10T21:51:28.339Z,13.00
2022-09-10T21:53:56.812Z,12.95
2022-09-10T21:56:25.930Z,14.23
2022-09-10T21:58:53.742Z,13.73
2022-09-10T22:01:22.787Z,13.23
2022-09-10T22:03:52.279Z,12.87
2022-09-10T22:06:24.894Z,14.02
2022-09-10T22:09:00.404Z,14.30
2022-09-10T22:11:34.121Z,13.45
2022-09-10T22:14:12.026Z,14.33
2022-09-10T22:16:39.035Z,12.87
2022-09-10T22:19:08.945Z,13.03
2022-09-10T22:21:38.600Z,12.50
2022-09-10T22:24:06.376Z,12.00
2022-09-10T22:26:33.659Z,12.43
2022-09-10T22:29:00.808Z,12.23
2022-09-10T22:31:31.592Z,12.65
2022-09-10T22:34:01.619Z,12.73
2022-09-10T22:36:34.949Z,12.03
2022-09-10T22:39:06.946Z,12.07
2022-09-10T22:41:35.624Z,12.55
2022-09-10T22:44:03.640Z,12.27
2022-09-10T22:46:31.566Z,11.33
2022-09-10T22:48:58.386Z,12.43
2022-09-10T22:51:27.691Z,12.77
2022-09-10T22:53:55.598Z,11.73
2022-09-10T22:56:23.379Z,11.70
2022-09-10T22:58:53.009Z,13.55
2022-09-10T23:01:22.789Z,13.20
2022-09-10T23:03:50.269Z,14.00
2022-09-10T23:06:23.413Z,12.80
2022-09-10T23:08:52.233Z,13.57
2022-09-10T23:11:23.631Z,11.80
2022-09-10T23:13:53.250Z,11.98
2022-09-10T23:16:28.950Z,12.07
2022-09-10T23:18:57.688Z,11.97
2022-09-10T23:21:25.984Z,11.32
2022-09-10T23:23:59.060Z,11.83
2022-09-10T23:26:26.876Z,11.00
2022-09-10T23:28:54.769Z,10.43
2022-09-10T23:31:26.708Z,11.20
2022-09-10T23:34:03.528Z,10.77
2022-09-10T23:36:36.548Z,10.98
2022-09-10T23:39:06.760Z,12.00
2022-09-10T23:41:34.464Z,11.13
2022-09-10T23:44:01.342Z,10.33
2022-09-10T23:46:28.763Z,10.80
2022-09-10T23:48:55.490Z,9.97
2022-09-10T23:51:22.680Z,9.35
2022-09-10T23:53:50.101Z,9.90
2022-09-10T23:56:19.629Z,9.17
2022-09-10T23:58:46.473Z,9.30
